Aviation Digital Data Service (ADDS)

Output produced by METARs form (0710 UTC 19 February 2019)
found at http://www.aviationweather.gov/metar/data/
 
METAR text: FIMP 190500Z 05011KT 9999 FEW014TCU SCT014 29/26 Q1014
Conditions at: FIMP (PLAISANCE , MU) observed 0500 UTC 19 February 2019
Temperature: 29.0°C (84°F)
Dewpoint: 26.0°C (79°F) [RH = 84%]
Pressure (altimeter): 29.94 inches Hg (1014.0 mb)
Winds: from the NE (50 degrees) at 13 MPH (11 knots; 5.7 m/s)
Visibility: 6 or more miles (10+ km)
Ceiling: at least 12,000 feet AGL
Clouds: few clouds at 1400 feet AGL
scattered clouds at 1400 feet AGL
Weather: no significant weather observed at this time

METAR text: FIMP 190400Z 05007KT 9999 SCT014 28/25 Q1014
Conditions at: FIMP (PLAISANCE , MU) observed 0400 UTC 19 February 2019
Temperature: 28.0°C (82°F)
Dewpoint: 25.0°C (77°F) [RH = 84%]
Pressure (altimeter): 29.94 inches Hg (1014.0 mb)
Winds: from the NE (50 degrees) at 8 MPH (7 knots; 3.6 m/s)
Visibility: 6 or more miles (10+ km)
Ceiling: at least 12,000 feet AGL
Clouds: scattered clouds at 1400 feet AGL
Weather: no significant weather observed at this time

METAR text: FIMP 190300Z 05004KT 9999 SCT013 27/26 Q1013
Conditions at: FIMP (PLAISANCE , MU) observed 0300 UTC 19 February 2019
Temperature: 27.0°C (81°F)
Dewpoint: 26.0°C (79°F) [RH = 94%]
Pressure (altimeter): 29.91 inches Hg (1013.0 mb)
Winds: from the NE (50 degrees) at 5 MPH (4 knots; 2.1 m/s)
Visibility: 6 or more miles (10+ km)
Ceiling: at least 12,000 feet AGL
Clouds: scattered clouds at 1300 feet AGL
Weather: no significant weather observed at this time

METAR text: FIMP 190200Z 05006KT 9999 FEW010 SCT014 27/25 Q1013
Conditions at: FIMP (PLAISANCE , MU) observed 0200 UTC 19 February 2019
Temperature: 27.0°C (81°F)
Dewpoint: 25.0°C (77°F) [RH = 89%]
Pressure (altimeter): 29.91 inches Hg (1013.0 mb)
Winds: from the NE (50 degrees) at 7 MPH (6 knots; 3.1 m/s)
Visibility: 6 or more miles (10+ km)
Ceiling: at least 12,000 feet AGL
Clouds: few clouds at 1000 feet AGL
scattered clouds at 1400 feet AGL
Weather: no significant weather observed at this time

METAR text: FIMP 190100Z 04003KT 9999 SCT016 26/25 Q1012
Conditions at: FIMP (PLAISANCE , MU) observed 0100 UTC 19 February 2019
Temperature: 26.0°C (79°F)
Dewpoint: 25.0°C (77°F) [RH = 94%]
Pressure (altimeter): 29.88 inches Hg (1012.0 mb)
Winds: from the NE (40 degrees) at 3 MPH (3 knots; 1.5 m/s)
Visibility: 6 or more miles (10+ km)
Ceiling: at least 12,000 feet AGL
Clouds: scattered clouds at 1600 feet AGL
Weather: no significant weather observed at this time

METAR text: FIMP 190000Z 03003KT 9999 SCT016 26/25 Q1012
Conditions at: FIMP (PLAISANCE , MU) observed 0000 UTC 19 February 2019
Temperature: 26.0°C (79°F)
Dewpoint: 25.0°C (77°F) [RH = 94%]
Pressure (altimeter): 29.88 inches Hg (1012.0 mb)
Winds: from the NNE (30 degrees) at 3 MPH (3 knots; 1.5 m/s)
Visibility: 6 or more miles (10+ km)
Ceiling: at least 12,000 feet AGL
Clouds: scattered clouds at 1600 feet AGL
Weather: no significant weather observed at this time

METAR text: FIMP 182300Z 00000KT 9999 -SHRA SCT016 SCT050 26/25 Q1013
Conditions at: FIMP (PLAISANCE , MU) observed 2300 UTC 18 February 2019
Temperature: 26.0°C (79°F)
Dewpoint: 25.0°C (77°F) [RH = 94%]
Pressure (altimeter): 29.91 inches Hg (1013.0 mb)
Winds: calm
Visibility: 6 or more miles (10+ km)
Ceiling: at least 12,000 feet AGL
Clouds: scattered clouds at 1600 feet AGL
scattered clouds at 5000 feet AGL
Weather: -SHRA  (light rain showers)

METAR text: FIMP 182200Z 00000KT 9999 SCT016 SCT050 26/25 Q1013
Conditions at: FIMP (PLAISANCE , MU) observed 2200 UTC 18 February 2019
Temperature: 26.0°C (79°F)
Dewpoint: 25.0°C (77°F) [RH = 94%]
Pressure (altimeter): 29.91 inches Hg (1013.0 mb)
Winds: calm
Visibility: 6 or more miles (10+ km)
Ceiling: at least 12,000 feet AGL
Clouds: scattered clouds at 1600 feet AGL
scattered clouds at 5000 feet AGL
Weather: no significant weather observed at this time

METAR text: FIMP 182100Z 01002KT 9999 VCSH SCT016 27/25 Q1014
Conditions at: FIMP (PLAISANCE , MU) observed 2100 UTC 18 February 2019
Temperature: 27.0°C (81°F)
Dewpoint: 25.0°C (77°F) [RH = 89%]
Pressure (altimeter): 29.94 inches Hg (1014.0 mb)
Winds: from the N (10 degrees) at 2 MPH (2 knots; 1.0 m/s)
Visibility: 6 or more miles (10+ km)
Ceiling: at least 12,000 feet AGL
Clouds: scattered clouds at 1600 feet AGL
Weather: VCSH  (showers in vicinity)

METAR text: FIMP 182000Z 03003KT 9999 SCT017 27/25 Q1014
Conditions at: FIMP (PLAISANCE , MU) observed 2000 UTC 18 February 2019
Temperature: 27.0°C (81°F)
Dewpoint: 25.0°C (77°F) [RH = 89%]
Pressure (altimeter): 29.94 inches Hg (1014.0 mb)
Winds: from the NNE (30 degrees) at 3 MPH (3 knots; 1.5 m/s)
Visibility: 6 or more miles (10+ km)
Ceiling: at least 12,000 feet AGL
Clouds: scattered clouds at 1700 feet AGL
Weather: no significant weather observed at this time

METAR text: FIMP 181900Z 02003KT 9999 SCT017 26/24 Q1014
Conditions at: FIMP (PLAISANCE , MU) observed 1900 UTC 18 February 2019
Temperature: 26.0°C (79°F)
Dewpoint: 24.0°C (75°F) [RH = 89%]
Pressure (altimeter): 29.94 inches Hg (1014.0 mb)
Winds: from the NNE (20 degrees) at 3 MPH (3 knots; 1.5 m/s)
Visibility: 6 or more miles (10+ km)
Ceiling: at least 12,000 feet AGL
Clouds: scattered clouds at 1700 feet AGL
Weather: no significant weather observed at this time

METAR text: FIMP 181800Z 01001KT 9999 SCT017 27/24 Q1014
Conditions at: FIMP (PLAISANCE , MU) observed 1800 UTC 18 February 2019
Temperature: 27.0°C (81°F)
Dewpoint: 24.0°C (75°F) [RH = 84%]
Pressure (altimeter): 29.94 inches Hg (1014.0 mb)
Winds: from the N (10 degrees) at 1 MPH (1 knots; 0.5 m/s)
Visibility: 6 or more miles (10+ km)
Ceiling: at least 12,000 feet AGL
Clouds: scattered clouds at 1700 feet AGL
Weather: no significant weather observed at this time

METAR text: FIMP 181700Z 02002KT 9999 SCT017 27/24 Q1014
Conditions at: FIMP (PLAISANCE , MU) observed 1700 UTC 18 February 2019
Temperature: 27.0°C (81°F)
Dewpoint: 24.0°C (75°F) [RH = 84%]
Pressure (altimeter): 29.94 inches Hg (1014.0 mb)
Winds: from the NNE (20 degrees) at 2 MPH (2 knots; 1.0 m/s)
Visibility: 6 or more miles (10+ km)
Ceiling: at least 12,000 feet AGL
Clouds: scattered clouds at 1700 feet AGL
Weather: no significant weather observed at this time

METAR text: FIMP 181600Z 03001KT 9999 FEW017 SCT250 27/24 Q1013
Conditions at: FIMP (PLAISANCE , MU) observed 1600 UTC 18 February 2019
Temperature: 27.0°C (81°F)
Dewpoint: 24.0°C (75°F) [RH = 84%]
Pressure (altimeter): 29.91 inches Hg (1013.0 mb)
Winds: from the NNE (30 degrees) at 1 MPH (1 knots; 0.5 m/s)
Visibility: 6 or more miles (10+ km)
Ceiling: at least 12,000 feet AGL
Clouds: few clouds at 1700 feet AGL
scattered clouds at 25000 feet AGL
Weather: no significant weather observed at this time

METAR text: FIMP 181500Z 03006KT 9999 FEW017 SCT050 28/24 Q1013
Conditions at: FIMP (PLAISANCE , MU) observed 1500 UTC 18 February 2019
Temperature: 28.0°C (82°F)
Dewpoint: 24.0°C (75°F) [RH = 79%]
Pressure (altimeter): 29.91 inches Hg (1013.0 mb)
Winds: from the NNE (30 degrees) at 7 MPH (6 knots; 3.1 m/s)
Visibility: 6 or more miles (10+ km)
Ceiling: at least 12,000 feet AGL
Clouds: few clouds at 1700 feet AGL
scattered clouds at 5000 feet AGL
Weather: no significant weather observed at this time

METAR text: FIMP 181400Z 04008KT 9999 FEW017TCU FEW017 BKN050 30/24 Q1012
Conditions at: FIMP (PLAISANCE , MU) observed 1400 UTC 18 February 2019
Temperature: 30.0°C (86°F)
Dewpoint: 24.0°C (75°F) [RH = 70%]
Pressure (altimeter): 29.88 inches Hg (1012.0 mb)
Winds: from the NE (40 degrees) at 9 MPH (8 knots; 4.1 m/s)
Visibility: 6 or more miles (10+ km)
Ceiling: 5000 feet AGL
Clouds: few clouds at 1700 feet AGL
few clouds at 1700 feet AGL
broken clouds at 5000 feet AGL
Weather: no significant weather observed at this time

METAR text: FIMP 181300Z 04008KT 9999 FEW018 SCT050 31/23 Q1012
Conditions at: FIMP (PLAISANCE , MU) observed 1300 UTC 18 February 2019
Temperature: 31.0°C (88°F)
Dewpoint: 23.0°C (73°F) [RH = 63%]
Pressure (altimeter): 29.88 inches Hg (1012.0 mb)
Winds: from the NE (40 degrees) at 9 MPH (8 knots; 4.1 m/s)
Visibility: 6 or more miles (10+ km)
Ceiling: at least 12,000 feet AGL
Clouds: few clouds at 1800 feet AGL
scattered clouds at 5000 feet AGL
Weather: no significant weather observed at this time

METAR text: FIMP 181200Z 04010KT 9999 FEW018TCU 31/23 Q1011
Conditions at: FIMP (PLAISANCE , MU) observed 1200 UTC 18 February 2019
Temperature: 31.0°C (88°F)
Dewpoint: 23.0°C (73°F) [RH = 63%]
Pressure (altimeter): 29.85 inches Hg (1011.0 mb)
Winds: from the NE (40 degrees) at 12 MPH (10 knots; 5.1 m/s)
Visibility: 6 or more miles (10+ km)
Ceiling: at least 12,000 feet AGL
Clouds: few clouds at 1800 feet AGL
Weather: no significant weather observed at this time

METAR text: FIMP 181100Z 07009KT 9999 FEW///CB FEW018 31/23 Q1011
Conditions at: FIMP (PLAISANCE , MU) observed 1100 UTC 18 February 2019
Temperature: 31.0°C (88°F)
Dewpoint: 23.0°C (73°F) [RH = 63%]
Pressure (altimeter): 29.85 inches Hg (1011.0 mb)
Winds: from the ENE (70 degrees) at 10 MPH (9 knots; 4.6 m/s)
Visibility: 6 or more miles (10+ km)
Ceiling: at least 12,000 feet AGL
Clouds: few clouds at 1800 feet AGL
Weather: no significant weather observed at this time

METAR text: FIMP 181000Z 05014KT 9999 FEW017 SCT120 29/22 Q1012
Conditions at: FIMP (PLAISANCE , MU) observed 1000 UTC 18 February 2019
Temperature: 29.0°C (84°F)
Dewpoint: 22.0°C (72°F) [RH = 66%]
Pressure (altimeter): 29.88 inches Hg (1012.0 mb)
Winds: from the NE (50 degrees) at 16 MPH (14 knots; 7.2 m/s)
Visibility: 6 or more miles (10+ km)
Ceiling: at least 12,000 feet AGL
Clouds: few clouds at 1700 feet AGL
scattered clouds at 12000 feet AGL
Weather: no significant weather observed at this time

METAR text: FIMP 180900Z 04016KT 9999 FEW///CB FEW017 SCT120 28/24 Q1013
Conditions at: FIMP (PLAISANCE , MU) observed 0900 UTC 18 February 2019
Temperature: 28.0°C (82°F)
Dewpoint: 24.0°C (75°F) [RH = 79%]
Pressure (altimeter): 29.91 inches Hg (1013.0 mb)
Winds: from the NE (40 degrees) at 18 MPH (16 knots; 8.2 m/s)
Visibility: 6 or more miles (10+ km)
Ceiling: at least 12,000 feet AGL
Clouds: few clouds at 1700 feet AGL
scattered clouds at 12000 feet AGL
Weather: no significant weather observed at this time

METAR text: FIMP 180800Z 04012KT 9999 VCSH FEW014CB FEW016 SCT100 26/22 Q1014
Conditions at: FIMP (PLAISANCE , MU) observed 0800 UTC 18 February 2019
Temperature: 26.0°C (79°F)
Dewpoint: 22.0°C (72°F) [RH = 79%]
Pressure (altimeter): 29.94 inches Hg (1014.0 mb)
Winds: from the NE (40 degrees) at 14 MPH (12 knots; 6.2 m/s)
Visibility: 6 or more miles (10+ km)
Ceiling: at least 12,000 feet AGL
Clouds: few clouds at 1400 feet AGL
few clouds at 1600 feet AGL
scattered clouds at 10000 feet AGL
Weather: VCSH  (showers in vicinity)

METAR text: FIMP 180700Z 04014KT 8000 -TS FEW008 FEW012CB FEW014 SCT050 26/23 Q1015
Conditions at: FIMP (PLAISANCE , MU) observed 0700 UTC 18 February 2019
Temperature: 26.0°C (79°F)
Dewpoint: 23.0°C (73°F) [RH = 84%]
Pressure (altimeter): 29.97 inches Hg (1015.0 mb)
Winds: from the NE (40 degrees) at 16 MPH (14 knots; 7.2 m/s)
Visibility: 5 miles ( 8 km)
Ceiling: at least 12,000 feet AGL
Clouds: few clouds at 800 feet AGL
few clouds at 1200 feet AGL
few clouds at 1400 feet AGL
scattered clouds at 5000 feet AGL
Weather: -TS  (unknown weather)

METAR text: FIMP 180600Z 05014KT 5000 VCSH FEW005 FEW012CB SCT014 25/24 Q1016
Conditions at: FIMP (PLAISANCE , MU) observed 0600 UTC 18 February 2019
Temperature: 25.0°C (77°F)
Dewpoint: 24.0°C (75°F) [RH = 94%]
Pressure (altimeter): 30.00 inches Hg (1016.0 mb)
Winds: from the NE (50 degrees) at 16 MPH (14 knots; 7.2 m/s)
Visibility: 3 miles ( 5 km)
Ceiling: at least 12,000 feet AGL
Clouds: few clouds at 500 feet AGL
few clouds at 1200 feet AGL
scattered clouds at 1400 feet AGL
Weather: VCSH  (showers in vicinity)

METAR text: FIMP 180500Z 04007KT 2000E -TSRA FEW005 FEW012CB BKN012 BKN090 24/23 Q1016 RETS
Conditions at: FIMP (PLAISANCE , MU) observed 0500 UTC 18 February 2019
Temperature: 24.0°C (75°F)
Dewpoint: 23.0°C (73°F) [RH = 94%]
Pressure (altimeter): 30.00 inches Hg (1016.0 mb)
Winds: from the NE (40 degrees) at 8 MPH (7 knots; 3.6 m/s)
Visibility: 1.24 miles (2.00 km)
Ceiling: 1200 feet AGL
Clouds: few clouds at 500 feet AGL
few clouds at 1200 feet AGL
broken clouds at 1200 feet AGL
broken clouds at 9000 feet AGL
Weather: -TSRA  (light rain associated with thunderstorm(s))

METAR text: FIMP 180400Z 11010KT 2000NW TSRA FEW005 FEW013CB BKN014 BKN090 23/22 Q1015 TEMPO 1000 +SHRA/TSRA
Conditions at: FIMP (PLAISANCE , MU) observed 0400 UTC 18 February 2019
Temperature: 23.0°C (73°F)
Dewpoint: 22.0°C (72°F) [RH = 94%]
Pressure (altimeter): 29.97 inches Hg (1015.0 mb)
Winds: from the ESE (110 degrees) at 12 MPH (10 knots; 5.1 m/s)
Visibility: 1.24 miles (2.00 km)
Ceiling: 1400 feet AGL
Clouds: few clouds at 500 feet AGL
few clouds at 1300 feet AGL
broken clouds at 1400 feet AGL
broken clouds at 9000 feet AGL
Weather: TSRA  (rain associated with thunderstorm(s))

METAR text: FIMP 180300Z 18004KT 2000NW -TSRA FEW005 FEW013CB BKN014 BKN090 24/23 Q1015 TEMPO 1000 +SHRA/TSRA
Conditions at: FIMP (PLAISANCE , MU) observed 0300 UTC 18 February 2019
Temperature: 24.0°C (75°F)
Dewpoint: 23.0°C (73°F) [RH = 94%]
Pressure (altimeter): 29.97 inches Hg (1015.0 mb)
Winds: from the S (180 degrees) at 5 MPH (4 knots; 2.1 m/s)
Visibility: 1.24 miles (2.00 km)
Ceiling: 1400 feet AGL
Clouds: few clouds at 500 feet AGL
few clouds at 1300 feet AGL
broken clouds at 1400 feet AGL
broken clouds at 9000 feet AGL
Weather: -TSRA  (light rain associated with thunderstorm(s))

METAR text: FIMP 180200Z 33003KT 4000NW -TSRA FEW008 FEW013CB BKN014 23/22 Q1014 TEMPO 1000 +SHRA/TSRA
Conditions at: FIMP (PLAISANCE , MU) observed 0200 UTC 18 February 2019
Temperature: 23.0°C (73°F)
Dewpoint: 22.0°C (72°F) [RH = 94%]
Pressure (altimeter): 29.94 inches Hg (1014.0 mb)
Winds: from the NNW (330 degrees) at 3 MPH (3 knots; 1.5 m/s)
Visibility: 2.49 miles (4.01 km)
Ceiling: 1400 feet AGL
Clouds: few clouds at 800 feet AGL
few clouds at 1300 feet AGL
broken clouds at 1400 feet AGL
Weather: -TSRA  (light rain associated with thunderstorm(s))

METAR text: FIMP 180100Z 04006KT 4000NW TSRA FEW008 FEW013CB BKN014 SCT050 25/24 Q1014 TEMPO 1000 +SHRA/TSRA
Conditions at: FIMP (PLAISANCE , MU) observed 0100 UTC 18 February 2019
Temperature: 25.0°C (77°F)
Dewpoint: 24.0°C (75°F) [RH = 94%]
Pressure (altimeter): 29.94 inches Hg (1014.0 mb)
Winds: from the NE (40 degrees) at 7 MPH (6 knots; 3.1 m/s)
Visibility: 2.49 miles (4.01 km)
Ceiling: 1400 feet AGL
Clouds: few clouds at 800 feet AGL
few clouds at 1300 feet AGL
broken clouds at 1400 feet AGL
scattered clouds at 5000 feet AGL
Weather: TSRA  (rain associated with thunderstorm(s))

METAR text: FIMP 180000Z 00000KT 5000 -SHRA FEW///CB BKN014 SCT050 25/24 Q1014 TEMPO 3000 SHRA/TSRA
Conditions at: FIMP (PLAISANCE , MU) observed 0000 UTC 18 February 2019
Temperature: 25.0°C (77°F)
Dewpoint: 24.0°C (75°F) [RH = 94%]
Pressure (altimeter): 29.94 inches Hg (1014.0 mb)
Winds: calm
Visibility: 3 miles ( 5 km)
Ceiling: 1400 feet AGL
Clouds: broken clouds at 1400 feet AGL
scattered clouds at 5000 feet AGL
Weather: -SHRA  (light rain showers)

METAR text: FIMP 172300Z 30006KT 5000 -TSRA FEW014CB BKN015 SCT050 26/25 Q1014
Conditions at: FIMP (PLAISANCE , MU) observed 2300 UTC 17 February 2019
Temperature: 26.0°C (79°F)
Dewpoint: 25.0°C (77°F) [RH = 94%]
Pressure (altimeter): 29.94 inches Hg (1014.0 mb)
Winds: from the WNW (300 degrees) at 7 MPH (6 knots; 3.1 m/s)
Visibility: 3 miles ( 5 km)
Ceiling: 1500 feet AGL
Clouds: few clouds at 1400 feet AGL
broken clouds at 1500 feet AGL
scattered clouds at 5000 feet AGL
Weather: -TSRA  (light rain associated with thunderstorm(s))

METAR text: FIMP 172200Z 00000KT 9999 VCSH BKN015 SCT050 26/24 Q1014
Conditions at: FIMP (PLAISANCE , MU) observed 2200 UTC 17 February 2019
Temperature: 26.0°C (79°F)
Dewpoint: 24.0°C (75°F) [RH = 89%]
Pressure (altimeter): 29.94 inches Hg (1014.0 mb)
Winds: calm
Visibility: 6 or more miles (10+ km)
Ceiling: 1500 feet AGL
Clouds: broken clouds at 1500 feet AGL
scattered clouds at 5000 feet AGL
Weather: VCSH  (showers in vicinity)

METAR text: FIMP 172100Z 00000KT 9999 SCT016 27/24 Q1015
Conditions at: FIMP (PLAISANCE , MU) observed 2100 UTC 17 February 2019
Temperature: 27.0°C (81°F)
Dewpoint: 24.0°C (75°F) [RH = 84%]
Pressure (altimeter): 29.97 inches Hg (1015.0 mb)
Winds: calm
Visibility: 6 or more miles (10+ km)
Ceiling: at least 12,000 feet AGL
Clouds: scattered clouds at 1600 feet AGL
Weather: no significant weather observed at this time

METAR text: FIMP 172000Z 05009KT 9999 VCSH BKN015 27/25 Q1015
Conditions at: FIMP (PLAISANCE , MU) observed 2000 UTC 17 February 2019
Temperature: 27.0°C (81°F)
Dewpoint: 25.0°C (77°F) [RH = 89%]
Pressure (altimeter): 29.97 inches Hg (1015.0 mb)
Winds: from the NE (50 degrees) at 10 MPH (9 knots; 4.6 m/s)
Visibility: 6 or more miles (10+ km)
Ceiling: 1500 feet AGL
Clouds: broken clouds at 1500 feet AGL
Weather: VCSH  (showers in vicinity)

Forecast for: FIMP (PLAISANCE , MU)
Text: TAF FIMP 190530Z 1906/2012 05010KT 9999 SCT017
Forecast period: 0600 UTC 19 February 2019 to 1200 UTC 20 February 2019
Forecast type: FROM: standard forecast or significant change
Winds: from the NE (50 degrees) at 12 MPH (10 knots; 5.1 m/s)
Visibility: 6 or more miles 10+ km)
Ceiling: at least 12,000 feet AGL
Clouds: scattered clouds at 1700 feet AGL
Weather: no significant weather forecast for this period
Text: PROB30
Forecast period: 0900 to 1200 UTC 19 February 2019
Forecast type: TEMPORARY: The following changes expected for less than half the time period
Visibility: 4 miles (7 km)
Ceiling: 1600 feet AGL
Clouds: few clouds at 1000 feet AGL
few clouds at 1400 feet AGL
broken clouds at 1600 feet AGL
Weather: -SHRA  (light rain showers)